CheckWX is a tool to help pilots better visualize weather data.  It is not intended as a substitute for an official pre-flight weather briefing.

12:27:53 UTC

KFRH METAR
French Lick Municipal Airport
French Lick, Indiana, USA
Current

13 mins ago

KFRH 221215Z AUTO 05008KT 10SM CLR 01/M04 A3032 RMK AO1
Observed
Feb-22 @ 12:15 UTC
Wind
  • 050° at 8 KTS
Visibility
10 SM
Flight Rules
VFR
Cloud Levels
  • Clear skies
Temperature
C / 34°F
Dewpoint
-4°C / 25°F
Humidity
70%
Altimeter
30.32" Hg
Pressure
1026.72 hPa
Previous

33 mins ago

KFRH 221155Z AUTO 04009KT 10SM CLR 01/M04 A3031 RMK AO1
Observed
Feb-22 @ 11:55 UTC
Wind
  • 040° at 9 KTS
Visibility
10 SM
Flight Rules
VFR
Cloud Levels
  • Clear skies
Temperature
C / 34°F
Dewpoint
-4°C / 25°F
Humidity
70%
Altimeter
30.31" Hg
Pressure
1026.42 hPa
Previous

53 mins ago

KFRH 221135Z AUTO 05008KT 10SM CLR 01/M04 A3032 RMK AO1
Observed
Feb-22 @ 11:35 UTC
Wind
  • 050° at 8 KTS
Visibility
10 SM
Flight Rules
VFR
Cloud Levels
  • Clear skies
Temperature
C / 34°F
Dewpoint
-4°C / 25°F
Humidity
70%
Altimeter
30.32" Hg
Pressure
1026.72 hPa